createdAt,value
2023-01-30T00:01:50.135Z,4.20
2023-01-30T00:04:19.392Z,3.00
2023-01-30T00:06:47.262Z,3.53
2023-01-30T00:09:15.916Z,3.00
2023-01-30T00:11:43.832Z,3.83
2023-01-30T00:14:11.724Z,3.63
2023-01-30T00:16:39.699Z,3.23
2023-01-30T00:19:07.687Z,4.00
2023-01-30T00:21:36.947Z,3.93
2023-01-30T00:24:05.159Z,3.20
2023-01-30T00:26:33.237Z,3.80
2023-01-30T00:29:01.127Z,3.93
2023-01-30T00:31:29.045Z,3.90
2023-01-30T00:33:56.976Z,3.53
2023-01-30T00:36:24.881Z,2.70
2023-01-30T00:38:54.113Z,3.83
2023-01-30T00:41:22.727Z,4.23
2023-01-30T00:44:08.319Z,3.27
2023-01-30T00:46:53.844Z,4.60
2023-01-30T00:49:22.008Z,4.00
2023-01-30T00:51:49.968Z,4.10
2023-01-30T00:54:19.250Z,3.87
2023-01-30T00:56:47.201Z,3.87
2023-01-30T00:59:15.175Z,3.80
2023-01-30T01:01:43.178Z,4.10
2023-01-30T01:04:11.818Z,4.33
2023-01-30T01:06:40.415Z,4.60
2023-01-30T01:09:08.585Z,4.33
2023-01-30T01:11:37.861Z,3.93
2023-01-30T01:14:07.295Z,3.60
2023-01-30T01:16:36.408Z,3.73
2023-01-30T01:19:04.642Z,4.17
2023-01-30T01:21:32.564Z,3.77
2023-01-30T01:24:01.512Z,2.87
2023-01-30T01:26:29.627Z,4.10
2023-01-30T01:28:59.865Z,4.20
2023-01-30T01:31:28.068Z,4.20
2023-01-30T01:33:56.138Z,2.60
2023-01-30T01:36:51.747Z,4.33
2023-01-30T01:39:12.349Z,4.60
2023-01-30T01:41:39.258Z,4.47
2023-01-30T01:44:10.203Z,4.50
2023-01-30T01:46:43.321Z,4.30
2023-01-30T01:49:16.739Z,4.57
2023-01-30T01:51:51.392Z,3.83
2023-01-30T01:54:25.748Z,4.37
2023-01-30T01:56:54.406Z,4.67
2023-01-30T01:59:28.359Z,4.03
2023-01-30T02:01:59.333Z,4.40
2023-01-30T02:04:42.581Z,4.57
2023-01-30T02:07:11.112Z,4.33
2023-01-30T02:09:39.174Z,5.20
2023-01-30T02:12:09.200Z,4.67
2023-01-30T02:14:39.159Z,4.93
2023-01-30T02:17:07.116Z,4.07
2023-01-30T02:19:45.699Z,4.77
2023-01-30T02:22:43.820Z,5.00
2023-01-30T02:25:27.395Z,3.97
2023-01-30T02:28:31.010Z,4.90
2023-01-30T02:31:26.476Z,5.27
2023-01-30T02:34:04.519Z,5.10
2023-01-30T02:36:46.135Z,4.30
2023-01-30T02:39:21.659Z,4.77
2023-01-30T02:41:58.804Z,4.73
2023-01-30T02:44:33.783Z,5.27
2023-01-30T02:47:06.942Z,5.00
2023-01-30T02:49:39.895Z,4.77
2023-01-30T02:52:09.650Z,4.73
2023-01-30T02:54:37.543Z,5.07
2023-01-30T02:57:05.498Z,4.53
2023-01-30T02:59:37.701Z,3.90
2023-01-30T03:02:28.573Z,4.27
2023-01-30T03:05:21.580Z,5.27
2023-01-30T03:07:56.408Z,4.67
2023-01-30T03:10:33.208Z,4.53
2023-01-30T03:13:08.071Z,5.83
2023-01-30T03:15:40.526Z,5.10
2023-01-30T03:18:11.059Z,5.17
2023-01-30T03:20:40.681Z,4.70
2023-01-30T03:23:08.880Z,5.47
2023-01-30T03:25:38.587Z,5.40
2023-01-30T03:28:09.486Z,4.37
2023-01-30T03:30:37.454Z,4.63
2023-01-30T03:33:05.550Z,4.07
2023-01-30T03:35:35.133Z,5.27
2023-01-30T03:38:03.298Z,5.40
2023-01-30T03:40:31.658Z,4.90
2023-01-30T03:42:59.513Z,4.03
2023-01-30T03:45:27.408Z,4.50
2023-01-30T03:47:55.276Z,5.03
2023-01-30T03:50:23.197Z,4.80
2023-01-30T03:52:52.435Z,5.30
2023-01-30T03:55:20.639Z,4.40
2023-01-30T03:57:48.735Z,4.67
2023-01-30T04:00:17.576Z,4.83
2023-01-30T04:02:45.483Z,4.20
2023-01-30T04:05:13.365Z,5.53
2023-01-30T04:07:41.380Z,5.40
2023-01-30T04:10:12.039Z,4.50
2023-01-30T04:12:39.891Z,4.53
2023-01-30T04:15:08.672Z,4.37
2023-01-30T04:17:36.580Z,5.23
2023-01-30T04:20:05.136Z,5.23
2023-01-30T04:22:33.198Z,4.93
2023-01-30T04:25:01.120Z,5.30
2023-01-30T04:27:30.445Z,6.00
2023-01-30T04:29:58.338Z,4.60
2023-01-30T04:32:27.602Z,5.43
2023-01-30T04:34:55.521Z,4.70
2023-01-30T04:37:23.721Z,4.93
2023-01-30T04:39:51.574Z,4.60
2023-01-30T04:42:19.471Z,4.07
2023-01-30T04:44:48.682Z,5.97
2023-01-30T04:47:17.089Z,4.93
2023-01-30T04:49:45.027Z,5.23
2023-01-30T04:52:12.935Z,4.60
2023-01-30T04:54:40.885Z,4.83
2023-01-30T04:57:08.766Z,5.20
2023-01-30T04:59:36.657Z,4.80
2023-01-30T05:02:05.971Z,4.87
2023-01-30T05:04:33.903Z,5.57
2023-01-30T05:07:01.824Z,4.70
2023-01-30T05:09:29.865Z,4.77
2023-01-30T05:11:57.733Z,4.93
2023-01-30T05:14:25.740Z,4.17
2023-01-30T05:16:53.708Z,4.10
2023-01-30T05:19:22.994Z,4.80
2023-01-30T05:21:50.907Z,4.80
2023-01-30T05:24:18.816Z,5.47
2023-01-30T05:26:46.746Z,5.33
2023-01-30T05:29:14.649Z,5.10
2023-01-30T05:31:42.678Z,5.47
2023-01-30T05:34:12.828Z,4.27
2023-01-30T05:36:42.188Z,5.40
2023-01-30T05:39:10.131Z,4.70
2023-01-30T05:41:38.057Z,5.37
2023-01-30T05:44:06.416Z,4.77
2023-01-30T05:46:34.404Z,4.90
2023-01-30T05:49:04.116Z,4.90
2023-01-30T05:51:32.239Z,4.27
2023-01-30T05:54:01.580Z,4.43
2023-01-30T05:56:33.084Z,5.10
2023-01-30T05:59:02.364Z,5.67
2023-01-30T06:01:30.878Z,4.73
2023-01-30T06:03:59.778Z,4.60
2023-01-30T06:06:27.790Z,4.73
2023-01-30T06:08:56.808Z,4.73
2023-01-30T06:11:26.750Z,4.73
2023-01-30T06:13:54.685Z,4.77
2023-01-30T06:16:22.645Z,5.10
2023-01-30T06:18:50.553Z,5.27
2023-01-30T06:21:18.586Z,5.27
2023-01-30T06:23:46.470Z,5.43
2023-01-30T06:26:14.491Z,5.27
2023-01-30T06:28:44.204Z,5.40
2023-01-30T06:31:14.234Z,4.53
2023-01-30T06:33:43.822Z,5.10
2023-01-30T06:36:11.825Z,5.10
2023-01-30T06:38:39.711Z,4.80
2023-01-30T06:41:07.973Z,5.03
2023-01-30T06:43:35.939Z,4.60
2023-01-30T06:46:05.412Z,4.93
2023-01-30T06:48:33.395Z,4.73
2023-01-30T06:51:01.295Z,4.37
2023-01-30T06:53:31.086Z,4.83
2023-01-30T06:55:59.235Z,5.00
2023-01-30T06:58:27.284Z,3.53
2023-01-30T07:00:55.289Z,4.23
2023-01-30T07:03:24.777Z,5.10
2023-01-30T07:05:52.829Z,4.07
2023-01-30T07:08:23.278Z,4.43
2023-01-30T07:10:52.385Z,3.73
2023-01-30T07:13:20.505Z,9.63
2023-01-30T07:15:48.395Z,4.10
2023-01-30T07:18:16.414Z,2.93
2023-01-30T07:20:48.995Z,2.53
2023-01-30T07:23:17.981Z,4.03
2023-01-30T07:25:46.080Z,3.13
2023-01-30T07:28:14.070Z,3.30
2023-01-30T07:30:42.008Z,3.20
2023-01-30T07:33:10.160Z,3.80
2023-01-30T07:35:38.882Z,3.90
2023-01-30T07:38:08.128Z,3.10
2023-01-30T07:40:36.051Z,3.20
2023-01-30T07:43:06.050Z,2.83
2023-01-30T07:45:38.760Z,4.30
2023-01-30T07:48:06.859Z,3.60
2023-01-30T07:50:35.077Z,3.73
2023-01-30T07:53:04.635Z,2.67
2023-01-30T07:55:33.927Z,2.67
2023-01-30T07:58:01.929Z,3.73
2023-01-30T08:00:30.163Z,3.33
2023-01-30T08:02:58.064Z,3.40
2023-01-30T08:05:26.312Z,3.60
2023-01-30T08:07:56.984Z,3.30
2023-01-30T08:10:25.588Z,2.97
2023-01-30T08:12:54.856Z,3.17
2023-01-30T08:15:23.192Z,2.90
2023-01-30T08:18:00.098Z,2.67
2023-01-30T08:20:29.246Z,2.57
2023-01-30T08:22:59.275Z,2.80
2023-01-30T08:25:27.196Z,2.83
2023-01-30T08:27:56.994Z,2.90
2023-01-30T08:30:25.213Z,3.37
2023-01-30T08:32:53.233Z,3.13
2023-01-30T08:35:21.439Z,2.87
2023-01-30T08:37:49.423Z,3.03
2023-01-30T08:40:17.787Z,2.70
2023-01-30T08:42:46.337Z,2.30
2023-01-30T08:45:15.788Z,2.33
2023-01-30T08:47:43.735Z,2.53
2023-01-30T08:50:12.370Z,2.57
2023-01-30T08:52:40.323Z,2.50
2023-01-30T08:55:09.357Z,2.80
2023-01-30T08:57:37.353Z,3.53
2023-01-30T09:00:05.920Z,2.70
2023-01-30T09:02:35.310Z,2.50
2023-01-30T09:05:03.429Z,2.90
2023-01-30T09:07:31.354Z,2.63
2023-01-30T09:09:59.341Z,2.63
2023-01-30T09:12:27.936Z,2.20
2023-01-30T09:14:57.993Z,2.77
2023-01-30T09:17:26.210Z,2.90
2023-01-30T09:19:55.540Z,2.37
2023-01-30T09:22:23.412Z,2.20
2023-01-30T09:24:51.335Z,2.47
2023-01-30T09:27:19.328Z,2.77
2023-01-30T09:29:47.275Z,2.50
2023-01-30T09:32:15.161Z,2.23
2023-01-30T09:34:43.114Z,2.03
2023-01-30T09:37:12.413Z,1.67
2023-01-30T09:39:40.330Z,1.87
2023-01-30T09:42:33.591Z,2.13
2023-01-30T09:45:24.921Z,1.93
2023-01-30T09:48:01.545Z,1.60
2023-01-30T09:51:07.888Z,1.57
2023-01-30T09:53:55.100Z,1.70
2023-01-30T09:56:23.015Z,1.40
2023-01-30T09:58:55.945Z,1.47
2023-01-30T10:01:31.958Z,1.50
2023-01-30T10:04:07.760Z,1.47
2023-01-30T10:06:44.735Z,0.93
2023-01-30T10:09:20.961Z,1.40
2023-01-30T10:12:03.183Z,1.70
2023-01-30T10:15:14.639Z,1.40
2023-01-30T10:17:58.983Z,1.23
2023-01-30T10:20:36.482Z,1.10
2023-01-30T10:23:19.250Z,0.80
2023-01-30T10:25:53.804Z,0.87
2023-01-30T10:28:26.741Z,1.40
2023-01-30T10:31:01.235Z,1.43
2023-01-30T10:33:35.905Z,0.97
2023-01-30T10:36:08.559Z,1.27
2023-01-30T10:38:41.863Z,1.17
2023-01-30T10:41:21.134Z,3.07
2023-01-30T10:43:58.564Z,1.20
2023-01-30T10:46:51.545Z,1.67
2023-01-30T10:49:25.766Z,1.30
2023-01-30T10:52:03.553Z,1.63
2023-01-30T10:54:38.767Z,1.37
2023-01-30T10:57:16.834Z,1.07
2023-01-30T10:59:53.908Z,1.30
2023-01-30T11:02:26.483Z,2.13
2023-01-30T11:05:00.251Z,1.90
2023-01-30T11:07:32.530Z,0.90
2023-01-30T11:10:01.812Z,1.27
2023-01-30T11:12:31.043Z,1.60
2023-01-30T11:15:00.418Z,1.27
2023-01-30T11:17:34.395Z,1.37
2023-01-30T11:20:13.574Z,1.10
2023-01-30T11:22:48.201Z,1.50
2023-01-30T11:25:19.736Z,1.47
2023-01-30T11:27:56.684Z,1.33
2023-01-30T11:30:30.077Z,1.60
2023-01-30T11:33:11.402Z,1.20
2023-01-30T11:35:45.336Z,1.60
2023-01-30T11:38:22.728Z,1.57
2023-01-30T11:40:50.694Z,1.83
2023-01-30T11:43:20.448Z,1.73
2023-01-30T11:45:50.863Z,1.77
2023-01-30T11:48:34.132Z,2.03
2023-01-30T11:51:11.445Z,2.17
2023-01-30T11:53:42.591Z,1.47
2023-01-30T11:56:16.995Z,1.90
2023-01-30T11:58:49.999Z,1.83
2023-01-30T12:01:18.239Z,1.00
2023-01-30T12:03:50.200Z,1.90
2023-01-30T12:06:29.453Z,0.87
2023-01-30T12:08:58.216Z,0.90
2023-01-30T12:11:32.455Z,1.03
2023-01-30T12:14:21.101Z,0.70
2023-01-30T12:16:58.693Z,0.83
2023-01-30T12:19:37.910Z,1.50
2023-01-30T12:22:15.127Z,1.10
2023-01-30T12:24:47.159Z,1.17
2023-01-30T12:27:22.004Z,1.47
2023-01-30T12:30:01.390Z,1.57
2023-01-30T12:32:31.419Z,1.43
2023-01-30T12:34:59.374Z,1.47
2023-01-30T12:37:42.632Z,1.67
2023-01-30T12:40:22.678Z,1.30
2023-01-30T12:43:14.151Z,1.40
2023-01-30T12:45:56.191Z,2.37
2023-01-30T12:49:07.851Z,1.53
2023-01-30T12:52:00.933Z,1.47
2023-01-30T12:54:42.093Z,1.47
2023-01-30T12:57:22.439Z,1.40
2023-01-30T12:59:59.907Z,2.00
2023-01-30T13:02:43.841Z,1.50
2023-01-30T13:05:26.652Z,1.43
2023-01-30T13:08:09.795Z,1.37
2023-01-30T13:10:43.646Z,2.17
2023-01-30T13:13:20.268Z,1.97
2023-01-30T13:15:54.899Z,1.70
2023-01-30T13:18:28.118Z,0.90
2023-01-30T13:21:02.457Z,1.37
2023-01-30T13:23:42.759Z,1.00
2023-01-30T13:26:14.208Z,1.33
2023-01-30T13:28:46.765Z,0.87
2023-01-30T13:31:18.494Z,1.20
2023-01-30T13:33:51.178Z,1.27
2023-01-30T13:36:24.521Z,0.80
2023-01-30T13:39:05.710Z,1.00
2023-01-30T13:41:39.005Z,1.37
2023-01-30T13:44:18.462Z,1.10
2023-01-30T13:46:47.905Z,1.00
2023-01-30T13:49:23.756Z,1.33
2023-01-30T13:51:57.378Z,1.50
2023-01-30T13:54:43.361Z,1.37
2023-01-30T13:57:32.233Z,2.03
2023-01-30T14:00:27.937Z,1.10
2023-01-30T14:03:22.999Z,0.90
2023-01-30T14:06:23.693Z,1.13
2023-01-30T14:08:58.908Z,0.63
2023-01-30T14:11:34.378Z,1.17
2023-01-30T14:14:06.254Z,0.97
2023-01-30T14:16:45.857Z,0.50
2023-01-30T14:19:48.861Z,0.73
2023-01-30T14:22:35.325Z,0.80
2023-01-30T14:25:45.870Z,1.10
2023-01-30T14:28:51.025Z,1.10
2023-01-30T14:31:52.372Z,0.80
2023-01-30T14:34:49.099Z,0.50
2023-01-30T14:37:57.657Z,1.13
2023-01-30T14:40:42.289Z,0.53
2023-01-30T14:43:39.744Z,0.90
2023-01-30T14:46:33.028Z,0.87
2023-01-30T14:49:05.528Z,1.10
2023-01-30T14:51:36.964Z,0.97
2023-01-30T14:54:11.124Z,0.93
2023-01-30T14:56:45.875Z,0.93
2023-01-30T14:59:25.006Z,0.40
2023-01-30T15:02:09.952Z,1.27
2023-01-30T15:04:44.894Z,0.50
2023-01-30T15:07:17.134Z,0.83
2023-01-30T15:09:59.867Z,0.63
2023-01-30T15:12:57.338Z,0.90
2023-01-30T15:15:31.223Z,0.40
2023-01-30T15:18:18.339Z,1.00
2023-01-30T15:21:02.569Z,0.70
2023-01-30T15:23:51.646Z,0.43
2023-01-30T15:26:30.778Z,0.40
2023-01-30T15:29:26.579Z,0.50
2023-01-30T15:31:55.644Z,1.07
2023-01-30T15:34:24.377Z,0.83
2023-01-30T15:36:52.340Z,0.43
2023-01-30T15:39:23.628Z,0.67
2023-01-30T15:41:53.271Z,0.80
2023-01-30T15:44:50.568Z,0.53
2023-01-30T15:47:41.702Z,0.50
2023-01-30T15:50:10.902Z,0.90
2023-01-30T15:52:44.860Z,0.57
2023-01-30T15:55:19.051Z,0.60
2023-01-30T15:57:52.128Z,0.73
2023-01-30T16:00:27.899Z,0.80
2023-01-30T16:02:57.204Z,0.53
2023-01-30T16:05:26.627Z,1.20
2023-01-30T16:07:55.688Z,0.60
2023-01-30T16:10:26.479Z,0.90
2023-01-30T16:12:56.634Z,0.50
2023-01-30T16:15:32.025Z,1.00
2023-01-30T16:18:06.153Z,0.90
2023-01-30T16:20:59.000Z,0.90
2023-01-30T16:23:32.826Z,0.97
2023-01-30T16:26:01.572Z,0.70
2023-01-30T16:28:31.821Z,1.07
2023-01-30T16:31:03.491Z,0.93
2023-01-30T16:33:36.318Z,1.13
2023-01-30T16:36:06.817Z,1.03
2023-01-30T16:38:43.009Z,1.00
2023-01-30T16:41:33.265Z,0.90
2023-01-30T16:44:20.967Z,1.47
2023-01-30T16:46:53.580Z,1.73
2023-01-30T16:49:25.442Z,1.23
2023-01-30T16:52:03.118Z,1.23
2023-01-30T16:54:32.728Z,1.23
2023-01-30T16:57:02.727Z,1.40
2023-01-30T16:59:33.070Z,1.17
2023-01-30T17:02:05.603Z,1.00
2023-01-30T17:04:35.721Z,0.93
2023-01-30T17:07:05.396Z,1.10
2023-01-30T17:09:42.981Z,0.87
2023-01-30T17:12:43.624Z,1.43
2023-01-30T17:15:32.621Z,1.10
2023-01-30T17:18:03.451Z,1.50
2023-01-30T17:20:40.768Z,0.83
2023-01-30T17:23:10.933Z,1.30
2023-01-30T17:25:42.819Z,1.47
2023-01-30T17:28:17.540Z,0.97
2023-01-30T17:30:45.700Z,1.40
2023-01-30T17:33:14.964Z,1.47
2023-01-30T17:35:42.986Z,1.10
2023-01-30T17:38:12.387Z,1.23
2023-01-30T17:40:40.403Z,1.37
2023-01-30T17:43:09.543Z,0.87
2023-01-30T17:45:37.921Z,1.00
2023-01-30T17:48:06.608Z,1.27
2023-01-30T17:50:36.574Z,1.53
2023-01-30T17:53:04.915Z,0.93
2023-01-30T17:55:34.311Z,1.50
2023-01-30T17:58:02.659Z,1.40
2023-01-30T18:00:30.527Z,1.40
2023-01-30T18:02:58.758Z,0.97
2023-01-30T18:05:27.346Z,0.73
2023-01-30T18:07:56.625Z,1.40
2023-01-30T18:10:24.517Z,1.20
2023-01-30T18:12:54.273Z,1.23
2023-01-30T18:15:22.307Z,1.80
2023-01-30T18:17:51.610Z,10.53
2023-01-30T18:20:21.556Z,2.17
2023-01-30T18:22:49.994Z,1.87
2023-01-30T18:25:19.512Z,5.90
2023-01-30T18:27:48.076Z,1.53
2023-01-30T18:30:17.843Z,1.90
2023-01-30T18:32:53.643Z,1.23
2023-01-30T18:35:22.788Z,1.60
2023-01-30T18:37:50.971Z,2.03
2023-01-30T18:40:21.871Z,1.10
2023-01-30T18:42:50.047Z,2.20
2023-01-30T18:45:18.296Z,1.33
2023-01-30T18:47:46.365Z,2.17
2023-01-30T18:50:14.263Z,1.60
2023-01-30T18:52:42.187Z,1.33
2023-01-30T18:55:10.493Z,1.87
2023-01-30T18:57:39.747Z,2.23
2023-01-30T19:00:09.070Z,2.03
2023-01-30T19:02:36.973Z,1.63
2023-01-30T19:05:05.298Z,1.60
2023-01-30T19:07:33.303Z,1.50
2023-01-30T19:10:01.229Z,2.37
2023-01-30T19:12:46.722Z,2.50
2023-01-30T19:15:16.318Z,2.00
2023-01-30T19:17:44.503Z,1.13
2023-01-30T19:20:13.131Z,2.10
2023-01-30T19:22:41.072Z,1.60
2023-01-30T19:25:09.701Z,2.40
2023-01-30T19:27:38.322Z,1.83
2023-01-30T19:30:07.647Z,2.77
2023-01-30T19:32:37.044Z,2.10
2023-01-30T19:35:05.772Z,1.93
2023-01-30T19:37:33.651Z,1.90
2023-01-30T19:40:02.313Z,2.37
2023-01-30T19:42:30.209Z,1.70
2023-01-30T19:44:58.187Z,2.30
2023-01-30T19:47:26.116Z,2.03
2023-01-30T19:49:55.831Z,1.40
2023-01-30T19:52:23.775Z,2.10
2023-01-30T19:54:51.826Z,1.97
2023-01-30T19:57:20.949Z,2.27
2023-01-30T19:59:48.818Z,1.83
2023-01-30T20:02:16.739Z,1.43
2023-01-30T20:04:44.669Z,1.50
2023-01-30T20:07:13.944Z,2.50
2023-01-30T20:09:41.935Z,2.67
2023-01-30T20:12:09.856Z,2.00
2023-01-30T20:14:37.767Z,1.70
2023-01-30T20:17:05.728Z,1.93
2023-01-30T20:19:33.613Z,1.47
2023-01-30T20:22:06.668Z,1.77
2023-01-30T20:24:35.972Z,2.63
2023-01-30T20:27:03.967Z,2.40
2023-01-30T20:29:31.974Z,3.00
2023-01-30T20:31:59.904Z,3.33
2023-01-30T20:34:27.847Z,2.70
2023-01-30T20:36:55.790Z,2.23
2023-01-30T20:39:23.809Z,1.80
2023-01-30T20:41:53.017Z,1.67
2023-01-30T20:44:21.423Z,2.07
2023-01-30T20:46:50.106Z,1.97
2023-01-30T20:49:20.043Z,1.60
2023-01-30T20:51:50.063Z,1.80
2023-01-30T20:54:18.757Z,1.23
2023-01-30T20:56:48.922Z,1.20
2023-01-30T20:59:20.536Z,1.93
2023-01-30T21:01:48.435Z,1.67
2023-01-30T21:04:18.000Z,1.80
2023-01-30T21:06:47.119Z,1.53
2023-01-30T21:09:17.565Z,1.63
2023-01-30T21:11:46.008Z,4.33
2023-01-30T21:14:14.712Z,3.30
2023-01-30T21:16:44.346Z,1.43
2023-01-30T21:19:15.806Z,1.50
2023-01-30T21:21:50.135Z,1.57
2023-01-30T21:24:20.546Z,0.80
2023-01-30T21:29:52.283Z,1.40
2023-01-30T21:32:21.699Z,2.30
2023-01-30T21:34:49.801Z,1.43
2023-01-30T21:37:35.645Z,1.83
2023-01-30T21:40:33.073Z,1.17
2023-01-30T21:43:24.021Z,1.17
2023-01-30T21:45:59.340Z,1.77
2023-01-30T21:48:28.927Z,1.47
2023-01-30T21:50:57.622Z,1.47
2023-01-30T21:53:25.604Z,1.83
2023-01-30T21:55:54.202Z,1.40
2023-01-30T21:58:22.167Z,1.90
2023-01-30T22:00:50.141Z,1.53
2023-01-30T22:03:18.187Z,1.77
2023-01-30T22:05:47.622Z,2.17
2023-01-30T22:08:15.567Z,1.30
2023-01-30T22:10:43.511Z,2.23
2023-01-30T22:13:11.494Z,1.60
2023-01-30T22:15:39.915Z,1.50
2023-01-30T22:18:07.927Z,1.60
2023-01-30T22:20:36.249Z,2.70
2023-01-30T22:23:05.490Z,1.83
2023-01-30T22:25:33.405Z,1.30
2023-01-30T22:28:01.412Z,1.70
2023-01-30T22:30:29.371Z,1.10
2023-01-30T22:32:57.278Z,1.67
2023-01-30T22:35:25.371Z,1.17
2023-01-30T22:37:53.329Z,1.93
2023-01-30T22:40:22.656Z,1.37
2023-01-30T22:42:50.611Z,2.07
2023-01-30T22:45:18.868Z,1.50
2023-01-30T22:47:46.918Z,1.70
2023-01-30T22:50:15.020Z,2.37
2023-01-30T22:52:42.953Z,1.30
2023-01-30T22:55:11.078Z,1.53
2023-01-30T22:57:40.560Z,1.17
2023-01-30T23:00:10.626Z,1.50
2023-01-30T23:02:38.596Z,1.70
2023-01-30T23:05:07.769Z,1.10
2023-01-30T23:07:35.841Z,1.63
2023-01-30T23:10:03.989Z,1.33
2023-01-30T23:13:00.747Z,2.23
2023-01-30T23:15:30.136Z,1.40
2023-01-30T23:18:15.520Z,0.63
2023-01-30T23:20:43.424Z,1.77
2023-01-30T23:23:11.426Z,1.20
2023-01-30T23:25:41.702Z,1.53
2023-01-30T23:28:10.224Z,1.47
2023-01-30T23:30:40.211Z,1.47
2023-01-30T23:33:09.858Z,2.07
2023-01-30T23:35:37.871Z,1.73
2023-01-30T23:38:19.169Z,1.37
2023-01-30T23:40:48.627Z,1.30
2023-01-30T23:43:17.460Z,1.53
2023-01-30T23:45:46.801Z,1.53
2023-01-30T23:48:14.816Z,1.20
2023-01-30T23:50:43.137Z,1.53
2023-01-30T23:53:11.725Z,1.20
2023-01-30T23:55:39.936Z,1.17
2023-01-30T23:58:07.941Z,2.20
